Alegre, Brazil
Current Conditions -  °F | °C
As of 4:00 PM on Thursday 29 Jan 2015 (Local Time) from SBCP Reporting Station
Few Clouds Few Clouds  
Wind Chill: 93°   Ceiling: Unl
Heat Index: 99°   Visibility: 6mi
Dew Point: 70°   Wind: 23mph
Humidity: 46%   Direction: 60°ENE
Pressure: 29.8"   Gusts: NA
Location:  20.76°S, 41.53°W
Report Text: SBCP 291800Z 06020KT 9999 FEW020 34/21 Q1009
Loading
Personal Weather Stations






























Interactive Weather Map New forecast layout! Learn more

10-Day Weather Forecast

Advertisements
Track Severe Weather on mobile